sensor_id;sensor_type;location;lat;lon;timestamp;P1;durP1;ratioP1;P2;durP2;ratioP2
28926;SDS011;16038;47.692;9.400;2024-03-02T00:01:11;23.42;;;14.13;;
28926;SDS011;16038;47.692;9.400;2024-03-02T00:03:37;23.45;;;14.75;;
28926;SDS011;16038;47.692;9.400;2024-03-02T00:06:03;22.15;;;13.75;;
28926;SDS011;16038;47.692;9.400;2024-03-02T00:08:29;20.77;;;13.73;;
28926;SDS011;16038;47.692;9.400;2024-03-02T00:10:58;18.05;;;12.77;;
28926;SDS011;16038;47.692;9.400;2024-03-02T00:13:25;22.70;;;13.48;;
28926;SDS011;16038;47.692;9.400;2024-03-02T00:18:18;20.10;;;13.90;;
28926;SDS011;16038;47.692;9.400;2024-03-02T00:20:45;17.75;;;11.38;;
28926;SDS011;16038;47.692;9.400;2024-03-02T00:23:13;22.23;;;13.13;;
28926;SDS011;16038;47.692;9.400;2024-03-02T00:33:20;24.95;;;15.10;;
28926;SDS011;16038;47.692;9.400;2024-03-02T00:35:47;25.20;;;16.50;;
28926;SDS011;16038;47.692;9.400;2024-03-02T00:38:13;27.63;;;17.38;;
28926;SDS011;16038;47.692;9.400;2024-03-02T00:40:41;29.77;;;18.35;;
28926;SDS011;16038;47.692;9.400;2024-03-02T00:43:44;33.65;;;19.02;;
28926;SDS011;16038;47.692;9.400;2024-03-02T00:46:12;31.40;;;18.70;;
28926;SDS011;16038;47.692;9.400;2024-03-02T00:48:42;30.60;;;18.90;;
28926;SDS011;16038;47.692;9.400;2024-03-02T00:51:15;37.95;;;20.63;;
28926;SDS011;16038;47.692;9.400;2024-03-02T00:53:40;36.05;;;19.77;;
28926;SDS011;16038;47.692;9.400;2024-03-02T00:56:08;35.13;;;20.42;;
28926;SDS011;16038;47.692;9.400;2024-03-02T00:58:35;33.47;;;20.33;;
28926;SDS011;16038;47.692;9.400;2024-03-02T01:01:00;37.97;;;21.05;;
28926;SDS011;16038;47.692;9.400;2024-03-02T01:03:26;35.33;;;20.48;;
28926;SDS011;16038;47.692;9.400;2024-03-02T01:05:51;36.05;;;20.63;;
28926;SDS011;16038;47.692;9.400;2024-03-02T01:08:17;33.47;;;20.38;;
28926;SDS011;16038;47.692;9.400;2024-03-02T01:10:42;32.17;;;19.55;;
28926;SDS011;16038;47.692;9.400;2024-03-02T01:13:08;29.80;;;18.60;;
28926;SDS011;16038;47.692;9.400;2024-03-02T01:15:33;28.17;;;18.58;;
28926;SDS011;16038;47.692;9.400;2024-03-02T01:17:59;28.63;;;18.30;;
28926;SDS011;16038;47.692;9.400;2024-03-02T01:20:24;28.27;;;16.67;;
28926;SDS011;16038;47.692;9.400;2024-03-02T01:22:50;26.83;;;16.52;;
28926;SDS011;16038;47.692;9.400;2024-03-02T01:25:15;28.17;;;16.73;;
28926;SDS011;16038;47.692;9.400;2024-03-02T01:27:41;28.50;;;17.05;;
28926;SDS011;16038;47.692;9.400;2024-03-02T01:30:06;27.92;;;17.20;;
28926;SDS011;16038;47.692;9.400;2024-03-02T01:32:32;26.63;;;16.35;;
28926;SDS011;16038;47.692;9.400;2024-03-02T01:34:57;27.83;;;17.00;;
28926;SDS011;16038;47.692;9.400;2024-03-02T01:37:23;27.17;;;16.80;;
28926;SDS011;16038;47.692;9.400;2024-03-02T01:39:48;28.48;;;16.55;;
28926;SDS011;16038;47.692;9.400;2024-03-02T01:42:14;27.42;;;16.10;;
28926;SDS011;16038;47.692;9.400;2024-03-02T01:44:40;29.08;;;16.83;;
28926;SDS011;16038;47.692;9.400;2024-03-02T01:47:05;27.02;;;15.82;;
28926;SDS011;16038;47.692;9.400;2024-03-02T01:49:30;25.42;;;14.57;;
28926;SDS011;16038;47.692;9.400;2024-03-02T01:51:57;25.48;;;15.73;;
28926;SDS011;16038;47.692;9.400;2024-03-02T01:54:23;25.83;;;16.65;;
28926;SDS011;16038;47.692;9.400;2024-03-02T01:56:48;27.75;;;16.42;;
28926;SDS011;16038;47.692;9.400;2024-03-02T01:59:14;26.42;;;17.25;;
28926;SDS011;16038;47.692;9.400;2024-03-02T02:01:39;29.17;;;16.40;;
28926;SDS011;16038;47.692;9.400;2024-03-02T02:04:05;25.60;;;15.48;;
28926;SDS011;16038;47.692;9.400;2024-03-02T02:06:31;26.67;;;16.85;;
28926;SDS011;16038;47.692;9.400;2024-03-02T02:08:57;30.15;;;16.77;;
28926;SDS011;16038;47.692;9.400;2024-03-02T02:11:23;29.33;;;16.67;;
28926;SDS011;16038;47.692;9.400;2024-03-02T02:13:48;28.00;;;16.33;;
28926;SDS011;16038;47.692;9.400;2024-03-02T02:16:13;26.58;;;16.23;;
28926;SDS011;16038;47.692;9.400;2024-03-02T02:18:39;28.13;;;17.42;;
28926;SDS011;16038;47.692;9.400;2024-03-02T02:21:04;28.05;;;17.70;;
28926;SDS011;16038;47.692;9.400;2024-03-02T02:23:30;33.80;;;19.00;;
28926;SDS011;16038;47.692;9.400;2024-03-02T02:25:55;33.22;;;19.73;;
28926;SDS011;16038;47.692;9.400;2024-03-02T02:28:20;39.17;;;20.23;;
28926;SDS011;16038;47.692;9.400;2024-03-02T02:30:46;35.58;;;19.92;;
28926;SDS011;16038;47.692;9.400;2024-03-02T02:33:11;35.17;;;19.70;;
28926;SDS011;16038;47.692;9.400;2024-03-02T02:35:37;39.70;;;20.77;;
28926;SDS011;16038;47.692;9.400;2024-03-02T02:38:02;37.22;;;20.95;;
28926;SDS011;16038;47.692;9.400;2024-03-02T02:40:28;37.75;;;21.23;;
28926;SDS011;16038;47.692;9.400;2024-03-02T02:42:57;35.08;;;20.83;;
28926;SDS011;16038;47.692;9.400;2024-03-02T02:45:24;38.97;;;21.40;;
28926;SDS011;16038;47.692;9.400;2024-03-02T02:47:49;35.60;;;21.45;;
28926;SDS011;16038;47.692;9.400;2024-03-02T02:50:15;36.53;;;20.25;;
28926;SDS011;16038;47.692;9.400;2024-03-02T02:52:41;37.05;;;20.17;;
28926;SDS011;16038;47.692;9.400;2024-03-02T02:55:08;34.10;;;19.98;;
28926;SDS011;16038;47.692;9.400;2024-03-02T02:57:34;33.47;;;18.95;;
28926;SDS011;16038;47.692;9.400;2024-03-02T03:00:03;31.33;;;18.67;;
28926;SDS011;16038;47.692;9.400;2024-03-02T03:02:35;29.92;;;17.73;;
28926;SDS011;16038;47.692;9.400;2024-03-02T03:05:01;33.33;;;19.08;;
28926;SDS011;16038;47.692;9.400;2024-03-02T03:07:26;31.90;;;19.45;;
28926;SDS011;16038;47.692;9.400;2024-03-02T03:09:52;32.15;;;18.77;;
28926;SDS011;16038;47.692;9.400;2024-03-02T03:12:17;35.08;;;19.90;;
28926;SDS011;16038;47.692;9.400;2024-03-02T03:14:42;31.92;;;19.10;;
28926;SDS011;16038;47.692;9.400;2024-03-02T03:17:08;34.20;;;19.75;;
28926;SDS011;16038;47.692;9.400;2024-03-02T03:19:33;34.65;;;19.45;;
28926;SDS011;16038;47.692;9.400;2024-03-02T03:21:59;37.15;;;20.30;;
28926;SDS011;16038;47.692;9.400;2024-03-02T03:24:24;35.35;;;19.35;;
28926;SDS011;16038;47.692;9.400;2024-03-02T03:26:50;31.55;;;18.33;;
28926;SDS011;16038;47.692;9.400;2024-03-02T03:29:15;32.05;;;19.17;;
28926;SDS011;16038;47.692;9.400;2024-03-02T03:31:40;31.40;;;17.95;;
28926;SDS011;16038;47.692;9.400;2024-03-02T03:34:06;32.00;;;18.30;;
28926;SDS011;16038;47.692;9.400;2024-03-02T03:36:31;33.20;;;19.40;;
28926;SDS011;16038;47.692;9.400;2024-03-02T03:38:57;32.40;;;18.88;;
28926;SDS011;16038;47.692;9.400;2024-03-02T03:41:22;31.67;;;19.10;;
28926;SDS011;16038;47.692;9.400;2024-03-02T03:43:48;33.03;;;17.67;;
28926;SDS011;16038;47.692;9.400;2024-03-02T03:46:13;30.90;;;18.13;;
28926;SDS011;16038;47.692;9.400;2024-03-02T03:48:39;34.92;;;19.08;;
28926;SDS011;16038;47.692;9.400;2024-03-02T03:51:05;31.55;;;18.27;;
28926;SDS011;16038;47.692;9.400;2024-03-02T03:53:30;29.13;;;17.42;;
28926;SDS011;16038;47.692;9.400;2024-03-02T03:55:55;32.55;;;18.30;;
28926;SDS011;16038;47.692;9.400;2024-03-02T03:58:21;30.90;;;18.50;;
28926;SDS011;16038;47.692;9.400;2024-03-02T04:00:46;28.80;;;18.42;;
28926;SDS011;16038;47.692;9.400;2024-03-02T04:03:12;35.38;;;19.15;;
28926;SDS011;16038;47.692;9.400;2024-03-02T04:05:46;29.20;;;17.67;;
28926;SDS011;16038;47.692;9.400;2024-03-02T04:08:11;27.17;;;15.88;;
28926;SDS011;16038;47.692;9.400;2024-03-02T04:10:37;27.20;;;16.70;;
28926;SDS011;16038;47.692;9.400;2024-03-02T04:13:02;28.08;;;16.77;;
28926;SDS011;16038;47.692;9.400;2024-03-02T04:15:28;29.08;;;17.63;;
28926;SDS011;16038;47.692;9.400;2024-03-02T04:17:54;33.20;;;19.27;;
28926;SDS011;16038;47.692;9.400;2024-03-02T04:20:20;33.08;;;19.23;;
28926;SDS011;16038;47.692;9.400;2024-03-02T04:22:45;44.83;;;22.15;;
28926;SDS011;16038;47.692;9.400;2024-03-02T04:25:11;41.95;;;22.60;;
28926;SDS011;16038;47.692;9.400;2024-03-02T04:27:36;42.53;;;22.85;;
28926;SDS011;16038;47.692;9.400;2024-03-02T04:30:02;41.30;;;23.00;;
28926;SDS011;16038;47.692;9.400;2024-03-02T04:32:28;43.67;;;22.58;;
28926;SDS011;16038;47.692;9.400;2024-03-02T04:34:54;47.00;;;25.10;;
28926;SDS011;16038;47.692;9.400;2024-03-02T04:37:19;43.45;;;22.85;;
28926;SDS011;16038;47.692;9.400;2024-03-02T04:39:45;40.50;;;22.60;;
28926;SDS011;16038;47.692;9.400;2024-03-02T04:42:10;40.42;;;22.80;;
28926;SDS011;16038;47.692;9.400;2024-03-02T04:44:36;39.38;;;21.25;;
28926;SDS011;16038;47.692;9.400;2024-03-02T04:47:03;42.33;;;21.38;;
28926;SDS011;16038;47.692;9.400;2024-03-02T04:49:29;38.15;;;21.40;;
28926;SDS011;16038;47.692;9.400;2024-03-02T04:51:55;38.38;;;21.83;;
28926;SDS011;16038;47.692;9.400;2024-03-02T04:54:21;38.53;;;21.95;;
28926;SDS011;16038;47.692;9.400;2024-03-02T04:56:47;44.55;;;21.58;;
28926;SDS011;16038;47.692;9.400;2024-03-02T04:59:16;36.05;;;19.55;;
28926;SDS011;16038;47.692;9.400;2024-03-02T05:01:42;61.47;;;28.55;;
28926;SDS011;16038;47.692;9.400;2024-03-02T05:04:08;60.78;;;27.70;;
28926;SDS011;16038;47.692;9.400;2024-03-02T05:06:40;57.58;;;27.60;;
28926;SDS011;16038;47.692;9.400;2024-03-02T05:09:09;54.93;;;27.03;;
28926;SDS011;16038;47.692;9.400;2024-03-02T05:11:34;57.75;;;26.90;;
28926;SDS011;16038;47.692;9.400;2024-03-02T05:14:03;57.78;;;27.40;;
28926;SDS011;16038;47.692;9.400;2024-03-02T05:16:32;60.53;;;27.50;;
28926;SDS011;16038;47.692;9.400;2024-03-02T05:18:58;49.28;;;24.63;;
28926;SDS011;16038;47.692;9.400;2024-03-02T05:21:23;50.40;;;26.30;;
28926;SDS011;16038;47.692;9.400;2024-03-02T05:23:49;51.85;;;25.23;;
28926;SDS011;16038;47.692;9.400;2024-03-02T05:26:14;44.28;;;24.08;;
28926;SDS011;16038;47.692;9.400;2024-03-02T05:28:39;52.00;;;26.20;;
28926;SDS011;16038;47.692;9.400;2024-03-02T05:31:05;49.67;;;24.48;;
28926;SDS011;16038;47.692;9.400;2024-03-02T05:33:30;46.97;;;24.88;;
28926;SDS011;16038;47.692;9.400;2024-03-02T05:35:58;46.80;;;23.42;;
28926;SDS011;16038;47.692;9.400;2024-03-02T05:38:23;49.35;;;24.85;;
28926;SDS011;16038;47.692;9.400;2024-03-02T05:40:49;52.92;;;25.90;;
28926;SDS011;16038;47.692;9.400;2024-03-02T05:43:14;50.22;;;24.90;;
28926;SDS011;16038;47.692;9.400;2024-03-02T05:45:40;52.97;;;25.77;;
28926;SDS011;16038;47.692;9.400;2024-03-02T05:48:06;51.35;;;26.17;;
28926;SDS011;16038;47.692;9.400;2024-03-02T05:50:32;56.92;;;28.38;;
28926;SDS011;16038;47.692;9.400;2024-03-02T05:52:58;59.25;;;29.15;;
28926;SDS011;16038;47.692;9.400;2024-03-02T05:55:24;64.47;;;29.40;;
28926;SDS011;16038;47.692;9.400;2024-03-02T05:57:49;68.82;;;30.48;;
28926;SDS011;16038;47.692;9.400;2024-03-02T06:00:35;76.93;;;34.00;;
28926;SDS011;16038;47.692;9.400;2024-03-02T06:03:00;85.85;;;33.28;;
28926;SDS011;16038;47.692;9.400;2024-03-02T06:05:26;77.68;;;31.65;;
28926;SDS011;16038;47.692;9.400;2024-03-02T06:07:51;117.63;;;34.25;;
28926;SDS011;16038;47.692;9.400;2024-03-02T06:10:16;164.02;;;33.63;;
28926;SDS011;16038;47.692;9.400;2024-03-02T06:12:42;100.53;;;35.03;;
28926;SDS011;16038;47.692;9.400;2024-03-02T06:15:08;134.20;;;32.55;;
28926;SDS011;16038;47.692;9.400;2024-03-02T06:17:37;224.82;;;36.42;;
28926;SDS011;16038;47.692;9.400;2024-03-02T06:20:02;99.80;;;34.67;;
28926;SDS011;16038;47.692;9.400;2024-03-02T06:22:28;87.45;;;33.88;;
28926;SDS011;16038;47.692;9.400;2024-03-02T06:24:53;120.38;;;33.33;;
28926;SDS011;16038;47.692;9.400;2024-03-02T06:27:19;111.32;;;34.97;;
28926;SDS011;16038;47.692;9.400;2024-03-02T06:29:44;78.22;;;34.55;;
28926;SDS011;16038;47.692;9.400;2024-03-02T06:32:10;229.15;;;34.22;;
28926;SDS011;16038;47.692;9.400;2024-03-02T06:34:35;208.35;;;34.72;;
28926;SDS011;16038;47.692;9.400;2024-03-02T06:37:01;153.98;;;35.85;;
28926;SDS011;16038;47.692;9.400;2024-03-02T06:39:27;133.98;;;35.03;;
28926;SDS011;16038;47.692;9.400;2024-03-02T06:41:52;170.05;;;34.95;;
28926;SDS011;16038;47.692;9.400;2024-03-02T06:44:18;230.75;;;43.30;;
28926;SDS011;16038;47.692;9.400;2024-03-02T06:46:43;217.55;;;37.35;;
28926;SDS011;16038;47.692;9.400;2024-03-02T06:49:09;86.63;;;36.30;;
28926;SDS011;16038;47.692;9.400;2024-03-02T06:51:35;175.98;;;39.35;;
28926;SDS011;16038;47.692;9.400;2024-03-02T06:54:01;106.50;;;37.83;;
28926;SDS011;16038;47.692;9.400;2024-03-02T06:56:27;128.38;;;36.15;;
28926;SDS011;16038;47.692;9.400;2024-03-02T06:58:52;96.82;;;38.00;;
28926;SDS011;16038;47.692;9.400;2024-03-02T07:01:18;158.30;;;36.30;;
28926;SDS011;16038;47.692;9.400;2024-03-02T07:03:43;185.00;;;36.08;;
28926;SDS011;16038;47.692;9.400;2024-03-02T07:06:09;287.05;;;41.45;;
28926;SDS011;16038;47.692;9.400;2024-03-02T07:08:34;113.35;;;35.42;;
28926;SDS011;16038;47.692;9.400;2024-03-02T07:11:00;177.50;;;40.03;;
28926;SDS011;16038;47.692;9.400;2024-03-02T07:13:26;134.30;;;38.55;;
28926;SDS011;16038;47.692;9.400;2024-03-02T07:15:52;246.05;;;56.50;;
28926;SDS011;16038;47.692;9.400;2024-03-02T07:18:36;199.63;;;46.83;;
28926;SDS011;16038;47.692;9.400;2024-03-02T07:21:06;201.95;;;37.53;;
28926;SDS011;16038;47.692;9.400;2024-03-02T07:23:32;172.77;;;48.08;;
28926;SDS011;16038;47.692;9.400;2024-03-02T07:25:58;151.57;;;40.17;;
28926;SDS011;16038;47.692;9.400;2024-03-02T07:28:25;185.13;;;36.72;;
28926;SDS011;16038;47.692;9.400;2024-03-02T07:30:58;89.93;;;36.85;;
28926;SDS011;16038;47.692;9.400;2024-03-02T07:33:24;104.72;;;44.10;;
28926;SDS011;16038;47.692;9.400;2024-03-02T07:35:49;112.53;;;37.20;;
28926;SDS011;16038;47.692;9.400;2024-03-02T07:38:15;148.90;;;35.80;;
28926;SDS011;16038;47.692;9.400;2024-03-02T07:40:40;141.10;;;38.10;;
28926;SDS011;16038;47.692;9.400;2024-03-02T07:43:05;157.90;;;41.25;;
28926;SDS011;16038;47.692;9.400;2024-03-02T07:45:31;133.95;;;36.85;;
28926;SDS011;16038;47.692;9.400;2024-03-02T07:47:56;72.13;;;32.95;;
28926;SDS011;16038;47.692;9.400;2024-03-02T07:50:22;110.07;;;36.38;;
28926;SDS011;16038;47.692;9.400;2024-03-02T07:52:48;117.78;;;35.03;;
28926;SDS011;16038;47.692;9.400;2024-03-02T07:55:14;92.82;;;34.72;;
28926;SDS011;16038;47.692;9.400;2024-03-02T07:57:40;115.32;;;36.13;;
28926;SDS011;16038;47.692;9.400;2024-03-02T08:00:05;117.75;;;35.20;;
28926;SDS011;16038;47.692;9.400;2024-03-02T08:02:31;166.13;;;35.47;;
28926;SDS011;16038;47.692;9.400;2024-03-02T08:04:57;118.50;;;42.35;;
28926;SDS011;16038;47.692;9.400;2024-03-02T08:07:22;113.60;;;37.60;;
28926;SDS011;16038;47.692;9.400;2024-03-02T08:09:48;130.70;;;37.33;;
28926;SDS011;16038;47.692;9.400;2024-03-02T08:12:13;105.35;;;37.78;;
28926;SDS011;16038;47.692;9.400;2024-03-02T08:14:39;119.68;;;42.30;;
28926;SDS011;16038;47.692;9.400;2024-03-02T08:17:05;111.78;;;36.40;;
28926;SDS011;16038;47.692;9.400;2024-03-02T08:19:34;108.63;;;40.58;;
28926;SDS011;16038;47.692;9.400;2024-03-02T08:22:00;104.30;;;39.42;;
28926;SDS011;16038;47.692;9.400;2024-03-02T08:24:25;96.72;;;41.97;;
28926;SDS011;16038;47.692;9.400;2024-03-02T08:26:51;91.55;;;36.58;;
28926;SDS011;16038;47.692;9.400;2024-03-02T08:29:16;89.28;;;35.70;;
28926;SDS011;16038;47.692;9.400;2024-03-02T08:31:42;88.28;;;37.13;;
28926;SDS011;16038;47.692;9.400;2024-03-02T08:34:07;80.28;;;34.95;;
28926;SDS011;16038;47.692;9.400;2024-03-02T08:36:33;81.15;;;34.85;;
28926;SDS011;16038;47.692;9.400;2024-03-02T08:38:58;74.85;;;35.90;;
28926;SDS011;16038;47.692;9.400;2024-03-02T08:41:23;74.88;;;35.60;;
28926;SDS011;16038;47.692;9.400;2024-03-02T08:43:49;74.32;;;31.45;;
28926;SDS011;16038;47.692;9.400;2024-03-02T08:46:14;73.38;;;34.72;;
28926;SDS011;16038;47.692;9.400;2024-03-02T08:48:40;71.57;;;34.53;;
28926;SDS011;16038;47.692;9.400;2024-03-02T08:51:05;68.68;;;36.20;;
28926;SDS011;16038;47.692;9.400;2024-03-02T08:53:33;57.95;;;28.95;;
28926;SDS011;16038;47.692;9.400;2024-03-02T08:55:58;54.67;;;29.15;;
28926;SDS011;16038;47.692;9.400;2024-03-02T08:58:24;50.30;;;27.30;;
28926;SDS011;16038;47.692;9.400;2024-03-02T09:00:49;41.75;;;25.58;;
28926;SDS011;16038;47.692;9.400;2024-03-02T09:03:15;41.35;;;24.35;;
28926;SDS011;16038;47.692;9.400;2024-03-02T09:05:41;38.65;;;24.80;;
28926;SDS011;16038;47.692;9.400;2024-03-02T09:08:08;36.17;;;21.65;;
28926;SDS011;16038;47.692;9.400;2024-03-02T09:10:33;31.83;;;19.17;;
28926;SDS011;16038;47.692;9.400;2024-03-02T09:12:59;46.97;;;26.90;;
28926;SDS011;16038;47.692;9.400;2024-03-02T09:15:24;35.47;;;19.88;;
28926;SDS011;16038;47.692;9.400;2024-03-02T09:17:50;36.53;;;22.45;;
28926;SDS011;16038;47.692;9.400;2024-03-02T09:20:15;30.63;;;18.70;;
28926;SDS011;16038;47.692;9.400;2024-03-02T09:22:41;29.13;;;16.63;;
28926;SDS011;16038;47.692;9.400;2024-03-02T09:25:07;25.52;;;16.83;;
28926;SDS011;16038;47.692;9.400;2024-03-02T09:27:36;24.08;;;15.93;;
28926;SDS011;16038;47.692;9.400;2024-03-02T09:30:03;24.97;;;15.50;;
28926;SDS011;16038;47.692;9.400;2024-03-02T09:32:39;23.23;;;14.68;;
28926;SDS011;16038;47.692;9.400;2024-03-02T09:35:04;19.65;;;13.35;;
28926;SDS011;16038;47.692;9.400;2024-03-02T09:37:30;23.90;;;15.23;;
28926;SDS011;16038;47.692;9.400;2024-03-02T09:39:56;24.02;;;15.23;;
28926;SDS011;16038;47.692;9.400;2024-03-02T09:42:21;24.92;;;15.40;;
28926;SDS011;16038;47.692;9.400;2024-03-02T09:44:48;25.92;;;15.80;;
28926;SDS011;16038;47.692;9.400;2024-03-02T09:47:13;18.45;;;12.77;;
28926;SDS011;16038;47.692;9.400;2024-03-02T09:49:39;18.80;;;11.98;;
28926;SDS011;16038;47.692;9.400;2024-03-02T09:52:05;17.05;;;11.55;;
28926;SDS011;16038;47.692;9.400;2024-03-02T09:54:32;24.67;;;13.27;;
28926;SDS011;16038;47.692;9.400;2024-03-02T09:56:57;17.02;;;11.00;;
28926;SDS011;16038;47.692;9.400;2024-03-02T09:59:22;20.13;;;11.02;;
28926;SDS011;16038;47.692;9.400;2024-03-02T10:02:01;28.75;;;17.10;;
28926;SDS011;16038;47.692;9.400;2024-03-02T10:04:28;18.88;;;13.05;;
28926;SDS011;16038;47.692;9.400;2024-03-02T10:07:10;17.08;;;12.13;;
28926;SDS011;16038;47.692;9.400;2024-03-02T10:09:43;12.07;;;9.07;;
28926;SDS011;16038;47.692;9.400;2024-03-02T10:12:13;17.75;;;13.38;;
28926;SDS011;16038;47.692;9.400;2024-03-02T10:14:41;14.20;;;10.38;;
28926;SDS011;16038;47.692;9.400;2024-03-02T10:17:08;16.08;;;12.60;;
28926;SDS011;16038;47.692;9.400;2024-03-02T10:19:35;13.93;;;10.57;;
28926;SDS011;16038;47.692;9.400;2024-03-02T10:22:05;10.82;;;8.20;;
28926;SDS011;16038;47.692;9.400;2024-03-02T10:24:41;12.18;;;8.30;;
28926;SDS011;16038;47.692;9.400;2024-03-02T10:27:18;14.13;;;9.88;;
28926;SDS011;16038;47.692;9.400;2024-03-02T10:29:48;10.43;;;7.45;;
28926;SDS011;16038;47.692;9.400;2024-03-02T10:32:14;13.23;;;7.70;;
28926;SDS011;16038;47.692;9.400;2024-03-02T10:34:41;9.85;;;7.43;;
28926;SDS011;16038;47.692;9.400;2024-03-02T10:37:07;10.10;;;7.32;;
28926;SDS011;16038;47.692;9.400;2024-03-02T10:39:34;10.65;;;6.95;;
28926;SDS011;16038;47.692;9.400;2024-03-02T10:42:04;7.68;;;5.70;;
28926;SDS011;16038;47.692;9.400;2024-03-02T10:44:31;16.75;;;10.55;;
28926;SDS011;16038;47.692;9.400;2024-03-02T10:47:01;8.00;;;5.90;;
28926;SDS011;16038;47.692;9.400;2024-03-02T10:49:29;7.15;;;5.50;;
28926;SDS011;16038;47.692;9.400;2024-03-02T10:52:00;6.22;;;4.55;;
28926;SDS011;16038;47.692;9.400;2024-03-02T10:54:25;6.65;;;4.50;;
28926;SDS011;16038;47.692;9.400;2024-03-02T10:56:52;5.18;;;3.97;;
28926;SDS011;16038;47.692;9.400;2024-03-02T11:01:51;10.27;;;6.50;;
28926;SDS011;16038;47.692;9.400;2024-03-02T11:04:21;7.45;;;4.68;;
28926;SDS011;16038;47.692;9.400;2024-03-02T11:06:49;6.55;;;4.65;;
28926;SDS011;16038;47.692;9.400;2024-03-02T11:09:18;8.00;;;5.38;;
28926;SDS011;16038;47.692;9.400;2024-03-02T11:11:45;7.68;;;5.60;;
28926;SDS011;16038;47.692;9.400;2024-03-02T11:14:20;7.15;;;4.50;;
28926;SDS011;16038;47.692;9.400;2024-03-02T11:16:48;5.80;;;4.35;;
28926;SDS011;16038;47.692;9.400;2024-03-02T11:19:15;7.55;;;4.43;;
28926;SDS011;16038;47.692;9.400;2024-03-02T11:21:41;6.50;;;3.50;;
28926;SDS011;16038;47.692;9.400;2024-03-02T11:24:28;9.18;;;3.83;;
28926;SDS011;16038;47.692;9.400;2024-03-02T11:26:57;4.70;;;3.53;;
28926;SDS011;16038;47.692;9.400;2024-03-02T11:32:01;3.80;;;2.70;;
28926;SDS011;16038;47.692;9.400;2024-03-02T11:34:50;4.38;;;3.10;;
28926;SDS011;16038;47.692;9.400;2024-03-02T11:37:16;4.50;;;2.80;;
28926;SDS011;16038;47.692;9.400;2024-03-02T11:39:43;4.18;;;2.80;;
28926;SDS011;16038;47.692;9.400;2024-03-02T11:42:10;4.05;;;2.70;;
28926;SDS011;16038;47.692;9.400;2024-03-02T11:44:39;3.78;;;2.60;;
28926;SDS011;16038;47.692;9.400;2024-03-02T11:47:06;4.38;;;2.60;;
28926;SDS011;16038;47.692;9.400;2024-03-02T11:50:06;3.92;;;2.33;;
28926;SDS011;16038;47.692;9.400;2024-03-02T11:52:24;3.05;;;2.28;;
28926;SDS011;16038;47.692;9.400;2024-03-02T11:54:52;4.15;;;2.30;;
28926;SDS011;16038;47.692;9.400;2024-03-02T11:57:19;3.45;;;2.45;;
28926;SDS011;16038;47.692;9.400;2024-03-02T11:59:47;4.72;;;2.63;;
28926;SDS011;16038;47.692;9.400;2024-03-02T12:02:15;3.47;;;2.50;;
28926;SDS011;16038;47.692;9.400;2024-03-02T12:04:45;4.82;;;2.80;;
28926;SDS011;16038;47.692;9.400;2024-03-02T12:07:12;5.50;;;2.78;;
28926;SDS011;16038;47.692;9.400;2024-03-02T12:09:44;4.10;;;2.80;;
28926;SDS011;16038;47.692;9.400;2024-03-02T12:12:10;3.40;;;2.50;;
28926;SDS011;16038;47.692;9.400;2024-03-02T12:14:37;4.55;;;2.35;;
28926;SDS011;16038;47.692;9.400;2024-03-02T12:17:04;4.93;;;2.30;;
28926;SDS011;16038;47.692;9.400;2024-03-02T12:19:31;5.93;;;2.50;;
28926;SDS011;16038;47.692;9.400;2024-03-02T12:21:57;5.72;;;3.63;;
28926;SDS011;16038;47.692;9.400;2024-03-02T12:24:23;4.93;;;3.08;;
28926;SDS011;16038;47.692;9.400;2024-03-02T12:26:51;3.95;;;2.60;;
28926;SDS011;16038;47.692;9.400;2024-03-02T12:29:20;7.28;;;2.10;;
28926;SDS011;16038;47.692;9.400;2024-03-02T12:31:49;3.00;;;1.90;;
28926;SDS011;16038;47.692;9.400;2024-03-02T12:34:17;3.58;;;1.38;;
28926;SDS011;16038;47.692;9.400;2024-03-02T12:36:43;1.70;;;1.40;;
28926;SDS011;16038;47.692;9.400;2024-03-02T12:39:12;2.50;;;1.70;;
28926;SDS011;16038;47.692;9.400;2024-03-02T12:41:38;5.57;;;1.67;;
28926;SDS011;16038;47.692;9.400;2024-03-02T12:44:04;2.53;;;1.50;;
28926;SDS011;16038;47.692;9.400;2024-03-02T12:46:33;4.28;;;1.77;;
28926;SDS011;16038;47.692;9.400;2024-03-02T12:49:04;2.00;;;1.40;;
28926;SDS011;16038;47.692;9.400;2024-03-02T12:51:33;4.63;;;1.33;;
28926;SDS011;16038;47.692;9.400;2024-03-02T12:54:00;2.42;;;1.90;;
28926;SDS011;16038;47.692;9.400;2024-03-02T12:56:26;4.07;;;1.90;;
28926;SDS011;16038;47.692;9.400;2024-03-02T12:58:55;2.65;;;1.48;;
28926;SDS011;16038;47.692;9.400;2024-03-02T13:01:21;2.57;;;1.63;;
28926;SDS011;16038;47.692;9.400;2024-03-02T13:03:50;2.78;;;1.73;;
28926;SDS011;16038;47.692;9.400;2024-03-02T13:06:16;2.33;;;1.40;;
28926;SDS011;16038;47.692;9.400;2024-03-02T13:08:42;3.33;;;1.70;;
28926;SDS011;16038;47.692;9.400;2024-03-02T13:11:09;9.05;;;1.92;;
28926;SDS011;16038;47.692;9.400;2024-03-02T13:13:35;4.07;;;1.45;;
28926;SDS011;16038;47.692;9.400;2024-03-02T13:16:01;2.38;;;1.42;;
28926;SDS011;16038;47.692;9.400;2024-03-02T13:18:28;2.58;;;1.15;;
28926;SDS011;16038;47.692;9.400;2024-03-02T13:20:54;1.85;;;1.00;;
28926;SDS011;16038;47.692;9.400;2024-03-02T13:23:21;1.80;;;1.10;;
28926;SDS011;16038;47.692;9.400;2024-03-02T13:25:46;1.80;;;1.30;;
28926;SDS011;16038;47.692;9.400;2024-03-02T13:28:12;2.42;;;1.42;;
28926;SDS011;16038;47.692;9.400;2024-03-02T13:30:38;1.63;;;1.05;;
28926;SDS011;16038;47.692;9.400;2024-03-02T13:33:04;4.88;;;1.63;;
28926;SDS011;16038;47.692;9.400;2024-03-02T13:35:29;3.85;;;1.10;;
28926;SDS011;16038;47.692;9.400;2024-03-02T13:37:55;2.78;;;0.90;;
28926;SDS011;16038;47.692;9.400;2024-03-02T13:40:20;2.17;;;1.65;;
28926;SDS011;16038;47.692;9.400;2024-03-02T13:42:46;2.78;;;1.00;;
28926;SDS011;16038;47.692;9.400;2024-03-02T13:45:12;1.90;;;0.82;;
28926;SDS011;16038;47.692;9.400;2024-03-02T13:47:38;0.60;;;0.60;;
28926;SDS011;16038;47.692;9.400;2024-03-02T13:50:04;2.30;;;0.70;;
28926;SDS011;16038;47.692;9.400;2024-03-02T13:52:30;0.82;;;0.60;;
28926;SDS011;16038;47.692;9.400;2024-03-02T13:54:56;1.00;;;0.50;;
28926;SDS011;16038;47.692;9.400;2024-03-02T13:57:21;3.80;;;1.92;;
28926;SDS011;16038;47.692;9.400;2024-03-02T13:59:47;2.75;;;1.08;;
28926;SDS011;16038;47.692;9.400;2024-03-02T14:02:13;2.35;;;1.35;;
28926;SDS011;16038;47.692;9.400;2024-03-02T14:04:38;2.95;;;0.80;;
28926;SDS011;16038;47.692;9.400;2024-03-02T14:07:04;1.40;;;0.90;;
28926;SDS011;16038;47.692;9.400;2024-03-02T14:09:33;2.38;;;1.25;;
28926;SDS011;16038;47.692;9.400;2024-03-02T14:11:59;1.27;;;0.60;;
28926;SDS011;16038;47.692;9.400;2024-03-02T14:14:28;1.25;;;0.60;;
28926;SDS011;16038;47.692;9.400;2024-03-02T14:16:56;1.58;;;0.63;;
28926;SDS011;16038;47.692;9.400;2024-03-02T14:19:25;2.58;;;0.60;;
28926;SDS011;16038;47.692;9.400;2024-03-02T14:21:50;4.45;;;2.78;;
28926;SDS011;16038;47.692;9.400;2024-03-02T14:24:16;6.35;;;3.72;;
28926;SDS011;16038;47.692;9.400;2024-03-02T14:26:41;3.40;;;1.25;;
28926;SDS011;16038;47.692;9.400;2024-03-02T14:29:07;1.20;;;0.80;;
28926;SDS011;16038;47.692;9.400;2024-03-02T14:31:33;4.22;;;1.23;;
28926;SDS011;16038;47.692;9.400;2024-03-02T14:33:59;2.38;;;1.33;;
28926;SDS011;16038;47.692;9.400;2024-03-02T14:36:25;1.08;;;0.77;;
28926;SDS011;16038;47.692;9.400;2024-03-02T14:38:52;1.15;;;0.93;;